Aviation Digital Data Service (ADDS)

Output produced by METARs form (1331 UTC 25 February 2017)
found at http://www.aviationweather.gov/adds/metars/
 
KLGA 251215Z 2512/2612 VRB05KT 1/2SM FG VV002 
     FM251400 15009KT 2SM BR OVC005 
     FM251600 15011KT 4SM BR OVC008 
     FM251800 16011KT 6SM BR SCT008 BKN015 
     FM252300 18012KT 6SM -SHRA BR SCT008 BKN015 
     PROB30 2523/2601 5SM -TSRA BKN008CB 
     FM260100 27014G22KT P6SM VCSH BKN015 
     FM260300 29017G24KT P6SM BKN060 
     FM260500 30019G28KT P6SM SCT100